sensor_id;sensor_type;location;lat;lon;timestamp;P1;durP1;ratioP1;P2;durP2;ratioP2
35048;SDS011;21236;48.740;-3.446;2022-10-15T00:00:52;6.82;;;5.10;;
35048;SDS011;21236;48.740;-3.446;2022-10-15T00:03:18;10.85;;;5.93;;
35048;SDS011;21236;48.740;-3.446;2022-10-15T00:05:45;8.55;;;5.60;;
35048;SDS011;21236;48.740;-3.446;2022-10-15T00:08:11;7.57;;;5.30;;
35048;SDS011;21236;48.740;-3.446;2022-10-15T00:10:38;12.65;;;5.85;;
35048;SDS011;21236;48.740;-3.446;2022-10-15T00:13:04;9.27;;;5.38;;
35048;SDS011;21236;48.740;-3.446;2022-10-15T00:15:30;11.43;;;5.32;;
35048;SDS011;21236;48.740;-3.446;2022-10-15T00:17:57;9.82;;;5.13;;
35048;SDS011;21236;48.740;-3.446;2022-10-15T00:20:23;10.23;;;5.07;;
35048;SDS011;21236;48.740;-3.446;2022-10-15T00:22:49;6.63;;;4.90;;
35048;SDS011;21236;48.740;-3.446;2022-10-15T00:25:15;9.02;;;6.53;;
35048;SDS011;21236;48.740;-3.446;2022-10-15T00:27:41;10.77;;;7.10;;
35048;SDS011;21236;48.740;-3.446;2022-10-15T00:30:07;10.90;;;7.68;;
35048;SDS011;21236;48.740;-3.446;2022-10-15T00:32:34;14.82;;;8.05;;
35048;SDS011;21236;48.740;-3.446;2022-10-15T00:35:03;11.85;;;7.03;;
35048;SDS011;21236;48.740;-3.446;2022-10-15T00:37:29;12.05;;;6.28;;
35048;SDS011;21236;48.740;-3.446;2022-10-15T00:39:55;12.77;;;5.97;;
35048;SDS011;21236;48.740;-3.446;2022-10-15T00:42:22;8.95;;;6.15;;
35048;SDS011;21236;48.740;-3.446;2022-10-15T00:44:52;11.30;;;6.40;;
35048;SDS011;21236;48.740;-3.446;2022-10-15T00:52:41;9.20;;;6.15;;
35048;SDS011;21236;48.740;-3.446;2022-10-15T00:57:36;8.10;;;5.38;;
35048;SDS011;21236;48.740;-3.446;2022-10-15T01:00:07;9.75;;;5.20;;
35048;SDS011;21236;48.740;-3.446;2022-10-15T01:02:33;15.55;;;5.93;;
35048;SDS011;21236;48.740;-3.446;2022-10-15T01:04:59;10.23;;;5.22;;
35048;SDS011;21236;48.740;-3.446;2022-10-15T01:07:26;9.48;;;5.65;;
35048;SDS011;21236;48.740;-3.446;2022-10-15T01:09:52;8.93;;;5.35;;
35048;SDS011;21236;48.740;-3.446;2022-10-15T01:12:24;16.25;;;5.80;;
35048;SDS011;21236;48.740;-3.446;2022-10-15T01:15:14;7.18;;;5.20;;
35048;SDS011;21236;48.740;-3.446;2022-10-15T01:17:53;12.85;;;5.57;;
35048;SDS011;21236;48.740;-3.446;2022-10-15T01:20:43;12.45;;;5.43;;
35048;SDS011;21236;48.740;-3.446;2022-10-15T01:31:01;8.93;;;5.38;;
35048;SDS011;21236;48.740;-3.446;2022-10-15T01:41:02;9.27;;;4.32;;
35048;SDS011;21236;48.740;-3.446;2022-10-15T01:43:34;7.85;;;4.00;;
35048;SDS011;21236;48.740;-3.446;2022-10-15T01:46:26;5.60;;;2.67;;
35048;SDS011;21236;48.740;-3.446;2022-10-15T01:49:06;4.03;;;2.40;;
35048;SDS011;21236;48.740;-3.446;2022-10-15T01:51:35;4.43;;;2.20;;
35048;SDS011;21236;48.740;-3.446;2022-10-15T01:54:03;6.53;;;2.50;;
35048;SDS011;21236;48.740;-3.446;2022-10-15T01:56:30;3.63;;;2.33;;
35048;SDS011;21236;48.740;-3.446;2022-10-15T01:58:57;3.47;;;2.40;;
35048;SDS011;21236;48.740;-3.446;2022-10-15T02:01:24;3.38;;;2.28;;
35048;SDS011;21236;48.740;-3.446;2022-10-15T02:03:51;3.65;;;2.58;;
35048;SDS011;21236;48.740;-3.446;2022-10-15T02:06:22;4.90;;;2.28;;
35048;SDS011;21236;48.740;-3.446;2022-10-15T02:08:55;9.20;;;2.72;;
35048;SDS011;21236;48.740;-3.446;2022-10-15T02:11:22;3.88;;;2.33;;
35048;SDS011;21236;48.740;-3.446;2022-10-15T02:16:26;4.07;;;2.70;;
35048;SDS011;21236;48.740;-3.446;2022-10-15T02:21:28;6.10;;;3.40;;
35048;SDS011;21236;48.740;-3.446;2022-10-15T02:24:00;6.55;;;3.08;;
35048;SDS011;21236;48.740;-3.446;2022-10-15T02:26:29;4.10;;;2.70;;
35048;SDS011;21236;48.740;-3.446;2022-10-15T02:28:56;5.22;;;2.25;;
35048;SDS011;21236;48.740;-3.446;2022-10-15T02:31:23;6.30;;;2.83;;
35048;SDS011;21236;48.740;-3.446;2022-10-15T02:33:51;4.28;;;2.35;;
35048;SDS011;21236;48.740;-3.446;2022-10-15T02:36:18;2.53;;;1.95;;
35048;SDS011;21236;48.740;-3.446;2022-10-15T02:38:44;3.70;;;1.98;;
35048;SDS011;21236;48.740;-3.446;2022-10-15T02:41:11;4.43;;;2.00;;
35048;SDS011;21236;48.740;-3.446;2022-10-15T02:43:38;3.95;;;1.65;;
35048;SDS011;21236;48.740;-3.446;2022-10-15T02:46:04;4.72;;;1.30;;
35048;SDS011;21236;48.740;-3.446;2022-10-15T02:48:32;1.65;;;1.00;;
35048;SDS011;21236;48.740;-3.446;2022-10-15T02:50:58;3.03;;;1.20;;
35048;SDS011;21236;48.740;-3.446;2022-10-15T02:53:24;2.38;;;1.08;;
35048;SDS011;21236;48.740;-3.446;2022-10-15T02:55:51;3.72;;;1.30;;
35048;SDS011;21236;48.740;-3.446;2022-10-15T02:58:17;2.42;;;0.90;;
35048;SDS011;21236;48.740;-3.446;2022-10-15T03:00:43;2.17;;;1.02;;
35048;SDS011;21236;48.740;-3.446;2022-10-15T03:03:11;1.88;;;0.93;;
35048;SDS011;21236;48.740;-3.446;2022-10-15T03:05:37;3.25;;;1.17;;
35048;SDS011;21236;48.740;-3.446;2022-10-15T03:08:03;4.53;;;0.85;;
35048;SDS011;21236;48.740;-3.446;2022-10-15T03:10:30;3.67;;;1.20;;
35048;SDS011;21236;48.740;-3.446;2022-10-15T03:13:00;1.48;;;1.20;;
35048;SDS011;21236;48.740;-3.446;2022-10-15T03:15:32;2.63;;;1.23;;
35048;SDS011;21236;48.740;-3.446;2022-10-15T03:17:58;2.72;;;1.10;;
35048;SDS011;21236;48.740;-3.446;2022-10-15T03:20:24;3.20;;;1.58;;
35048;SDS011;21236;48.740;-3.446;2022-10-15T03:22:51;4.07;;;1.63;;
35048;SDS011;21236;48.740;-3.446;2022-10-15T03:25:17;2.30;;;1.50;;
35048;SDS011;21236;48.740;-3.446;2022-10-15T03:27:43;3.22;;;1.70;;
35048;SDS011;21236;48.740;-3.446;2022-10-15T03:30:21;4.35;;;2.10;;
35048;SDS011;21236;48.740;-3.446;2022-10-15T03:32:48;7.97;;;1.77;;
35048;SDS011;21236;48.740;-3.446;2022-10-15T03:35:14;4.30;;;2.05;;
35048;SDS011;21236;48.740;-3.446;2022-10-15T03:37:41;4.10;;;2.25;;
35048;SDS011;21236;48.740;-3.446;2022-10-15T03:40:08;3.28;;;2.03;;
35048;SDS011;21236;48.740;-3.446;2022-10-15T03:42:34;8.95;;;2.17;;
35048;SDS011;21236;48.740;-3.446;2022-10-15T03:45:01;3.90;;;2.20;;
35048;SDS011;21236;48.740;-3.446;2022-10-15T03:47:27;5.78;;;1.83;;
35048;SDS011;21236;48.740;-3.446;2022-10-15T03:49:55;5.35;;;2.35;;
35048;SDS011;21236;48.740;-3.446;2022-10-15T03:52:22;8.40;;;2.22;;
35048;SDS011;21236;48.740;-3.446;2022-10-15T03:54:51;7.00;;;2.50;;
35048;SDS011;21236;48.740;-3.446;2022-10-15T03:57:19;3.13;;;1.98;;
35048;SDS011;21236;48.740;-3.446;2022-10-15T03:59:51;4.93;;;2.20;;
35048;SDS011;21236;48.740;-3.446;2022-10-15T04:02:19;4.03;;;1.98;;
35048;SDS011;21236;48.740;-3.446;2022-10-15T04:04:45;4.55;;;2.15;;
35048;SDS011;21236;48.740;-3.446;2022-10-15T04:07:12;3.78;;;2.08;;
35048;SDS011;21236;48.740;-3.446;2022-10-15T04:09:38;3.28;;;2.28;;
35048;SDS011;21236;48.740;-3.446;2022-10-15T04:12:26;6.43;;;2.45;;
35048;SDS011;21236;48.740;-3.446;2022-10-15T04:14:52;4.43;;;1.92;;
35048;SDS011;21236;48.740;-3.446;2022-10-15T04:17:18;3.67;;;2.35;;
35048;SDS011;21236;48.740;-3.446;2022-10-15T04:19:44;3.92;;;2.13;;
35048;SDS011;21236;48.740;-3.446;2022-10-15T04:22:13;5.78;;;2.38;;
35048;SDS011;21236;48.740;-3.446;2022-10-15T04:24:49;3.65;;;2.40;;
35048;SDS011;21236;48.740;-3.446;2022-10-15T04:27:24;7.30;;;1.95;;
35048;SDS011;21236;48.740;-3.446;2022-10-15T04:29:50;5.88;;;3.17;;
35048;SDS011;21236;48.740;-3.446;2022-10-15T04:32:17;7.38;;;2.95;;
35048;SDS011;21236;48.740;-3.446;2022-10-15T04:34:45;3.95;;;2.45;;
35048;SDS011;21236;48.740;-3.446;2022-10-15T04:37:12;5.53;;;2.60;;
35048;SDS011;21236;48.740;-3.446;2022-10-15T04:39:38;4.38;;;2.53;;
35048;SDS011;21236;48.740;-3.446;2022-10-15T04:42:08;3.90;;;2.30;;
35048;SDS011;21236;48.740;-3.446;2022-10-15T04:44:34;6.85;;;3.25;;
35048;SDS011;21236;48.740;-3.446;2022-10-15T04:47:01;5.72;;;2.92;;
35048;SDS011;21236;48.740;-3.446;2022-10-15T04:49:39;9.40;;;2.83;;
35048;SDS011;21236;48.740;-3.446;2022-10-15T04:52:18;8.00;;;2.60;;
35048;SDS011;21236;48.740;-3.446;2022-10-15T04:57:17;4.88;;;2.65;;
35048;SDS011;21236;48.740;-3.446;2022-10-15T04:59:43;6.18;;;2.72;;
35048;SDS011;21236;48.740;-3.446;2022-10-15T05:02:44;4.13;;;2.50;;
35048;SDS011;21236;48.740;-3.446;2022-10-15T05:05:21;5.40;;;2.88;;
35048;SDS011;21236;48.740;-3.446;2022-10-15T05:10:20;4.45;;;2.53;;
35048;SDS011;21236;48.740;-3.446;2022-10-15T05:12:49;6.68;;;3.10;;
35048;SDS011;21236;48.740;-3.446;2022-10-15T05:15:24;5.35;;;2.80;;
35048;SDS011;21236;48.740;-3.446;2022-10-15T05:17:50;8.60;;;2.90;;
35048;SDS011;21236;48.740;-3.446;2022-10-15T05:20:16;6.50;;;2.58;;
35048;SDS011;21236;48.740;-3.446;2022-10-15T05:22:44;8.10;;;2.63;;
35048;SDS011;21236;48.740;-3.446;2022-10-15T05:25:11;5.53;;;2.22;;
35048;SDS011;21236;48.740;-3.446;2022-10-15T05:27:39;6.68;;;2.92;;
35048;SDS011;21236;48.740;-3.446;2022-10-15T05:30:05;4.70;;;3.13;;
35048;SDS011;21236;48.740;-3.446;2022-10-15T05:32:51;5.78;;;3.00;;
35048;SDS011;21236;48.740;-3.446;2022-10-15T05:35:19;5.10;;;2.92;;
35048;SDS011;21236;48.740;-3.446;2022-10-15T05:37:53;6.97;;;2.90;;
35048;SDS011;21236;48.740;-3.446;2022-10-15T05:40:21;8.32;;;2.95;;
35048;SDS011;21236;48.740;-3.446;2022-10-15T05:42:59;11.45;;;3.40;;
35048;SDS011;21236;48.740;-3.446;2022-10-15T05:45:26;5.63;;;2.58;;
35048;SDS011;21236;48.740;-3.446;2022-10-15T05:47:56;7.28;;;2.90;;
35048;SDS011;21236;48.740;-3.446;2022-10-15T05:50:22;7.03;;;2.83;;
35048;SDS011;21236;48.740;-3.446;2022-10-15T05:52:53;4.53;;;2.60;;
35048;SDS011;21236;48.740;-3.446;2022-10-15T05:55:39;9.57;;;3.22;;
35048;SDS011;21236;48.740;-3.446;2022-10-15T05:58:05;10.60;;;2.60;;
35048;SDS011;21236;48.740;-3.446;2022-10-15T06:00:32;5.93;;;3.03;;
35048;SDS011;21236;48.740;-3.446;2022-10-15T06:02:58;6.32;;;2.90;;
35048;SDS011;21236;48.740;-3.446;2022-10-15T06:05:24;9.98;;;2.97;;
35048;SDS011;21236;48.740;-3.446;2022-10-15T06:07:50;7.47;;;2.70;;
35048;SDS011;21236;48.740;-3.446;2022-10-15T06:10:16;3.80;;;2.60;;
35048;SDS011;21236;48.740;-3.446;2022-10-15T06:12:42;4.93;;;2.47;;
35048;SDS011;21236;48.740;-3.446;2022-10-15T06:15:13;7.25;;;2.72;;
35048;SDS011;21236;48.740;-3.446;2022-10-15T06:17:39;6.20;;;2.60;;
35048;SDS011;21236;48.740;-3.446;2022-10-15T06:20:05;9.80;;;3.10;;
35048;SDS011;21236;48.740;-3.446;2022-10-15T06:22:31;4.68;;;2.85;;
35048;SDS011;21236;48.740;-3.446;2022-10-15T06:24:58;8.82;;;3.03;;
35048;SDS011;21236;48.740;-3.446;2022-10-15T06:27:24;9.02;;;2.85;;
35048;SDS011;21236;48.740;-3.446;2022-10-15T06:29:50;8.18;;;3.10;;
35048;SDS011;21236;48.740;-3.446;2022-10-15T06:32:16;6.25;;;3.80;;
35048;SDS011;21236;48.740;-3.446;2022-10-15T06:34:42;12.85;;;3.33;;
35048;SDS011;21236;48.740;-3.446;2022-10-15T06:37:09;7.28;;;2.85;;
35048;SDS011;21236;48.740;-3.446;2022-10-15T06:39:35;7.00;;;2.53;;
35048;SDS011;21236;48.740;-3.446;2022-10-15T06:42:01;3.05;;;2.10;;
35048;SDS011;21236;48.740;-3.446;2022-10-15T06:44:36;5.57;;;2.40;;
35048;SDS011;21236;48.740;-3.446;2022-10-15T06:47:02;3.65;;;2.50;;
35048;SDS011;21236;48.740;-3.446;2022-10-15T06:49:28;5.38;;;2.88;;
35048;SDS011;21236;48.740;-3.446;2022-10-15T06:51:55;10.23;;;3.00;;
35048;SDS011;21236;48.740;-3.446;2022-10-15T06:54:21;7.30;;;3.33;;
35048;SDS011;21236;48.740;-3.446;2022-10-15T06:56:47;7.85;;;2.30;;
35048;SDS011;21236;48.740;-3.446;2022-10-15T06:59:13;12.60;;;3.13;;
35048;SDS011;21236;48.740;-3.446;2022-10-15T07:01:39;9.05;;;3.15;;
35048;SDS011;21236;48.740;-3.446;2022-10-15T07:04:05;4.38;;;2.03;;
35048;SDS011;21236;48.740;-3.446;2022-10-15T07:06:33;5.63;;;2.20;;
35048;SDS011;21236;48.740;-3.446;2022-10-15T07:09:02;5.85;;;2.70;;
35048;SDS011;21236;48.740;-3.446;2022-10-15T07:11:29;12.27;;;2.60;;
35048;SDS011;21236;48.740;-3.446;2022-10-15T07:13:55;9.85;;;2.30;;
35048;SDS011;21236;48.740;-3.446;2022-10-15T07:16:22;8.55;;;2.60;;
35048;SDS011;21236;48.740;-3.446;2022-10-15T07:18:48;10.85;;;2.60;;
35048;SDS011;21236;48.740;-3.446;2022-10-15T07:21:14;5.32;;;2.22;;
35048;SDS011;21236;48.740;-3.446;2022-10-15T07:23:40;7.30;;;2.13;;
35048;SDS011;21236;48.740;-3.446;2022-10-15T07:26:07;7.68;;;1.90;;
35048;SDS011;21236;48.740;-3.446;2022-10-15T07:28:33;6.80;;;2.35;;
35048;SDS011;21236;48.740;-3.446;2022-10-15T07:31:00;7.32;;;1.92;;
35048;SDS011;21236;48.740;-3.446;2022-10-15T07:33:26;5.32;;;1.80;;
35048;SDS011;21236;48.740;-3.446;2022-10-15T07:35:57;5.70;;;1.85;;
35048;SDS011;21236;48.740;-3.446;2022-10-15T07:38:23;7.53;;;2.30;;
35048;SDS011;21236;48.740;-3.446;2022-10-15T07:40:49;6.80;;;1.88;;
35048;SDS011;21236;48.740;-3.446;2022-10-15T07:43:15;4.80;;;2.25;;
35048;SDS011;21236;48.740;-3.446;2022-10-15T07:45:45;9.70;;;1.90;;
35048;SDS011;21236;48.740;-3.446;2022-10-15T07:48:12;5.68;;;2.22;;
35048;SDS011;21236;48.740;-3.446;2022-10-15T07:50:38;4.68;;;2.33;;
35048;SDS011;21236;48.740;-3.446;2022-10-15T07:53:04;9.48;;;2.22;;
35048;SDS011;21236;48.740;-3.446;2022-10-15T07:55:30;6.50;;;2.13;;
35048;SDS011;21236;48.740;-3.446;2022-10-15T07:57:56;8.20;;;2.10;;
35048;SDS011;21236;48.740;-3.446;2022-10-15T08:00:23;13.80;;;2.35;;
35048;SDS011;21236;48.740;-3.446;2022-10-15T08:02:49;7.35;;;1.85;;
35048;SDS011;21236;48.740;-3.446;2022-10-15T08:05:18;9.57;;;1.90;;
35048;SDS011;21236;48.740;-3.446;2022-10-15T08:07:44;4.07;;;1.40;;
35048;SDS011;21236;48.740;-3.446;2022-10-15T08:10:11;8.60;;;1.33;;
35048;SDS011;21236;48.740;-3.446;2022-10-15T08:12:37;6.13;;;1.25;;
35048;SDS011;21236;48.740;-3.446;2022-10-15T08:15:04;7.70;;;1.52;;
35048;SDS011;21236;48.740;-3.446;2022-10-15T08:17:30;3.30;;;1.17;;
35048;SDS011;21236;48.740;-3.446;2022-10-15T08:19:56;3.90;;;1.50;;
35048;SDS011;21236;48.740;-3.446;2022-10-15T08:22:22;8.40;;;1.38;;
35048;SDS011;21236;48.740;-3.446;2022-10-15T08:24:51;3.90;;;1.30;;
35048;SDS011;21236;48.740;-3.446;2022-10-15T08:27:17;8.13;;;1.50;;
35048;SDS011;21236;48.740;-3.446;2022-10-15T08:29:45;7.03;;;1.30;;
35048;SDS011;21236;48.740;-3.446;2022-10-15T08:32:11;7.57;;;1.65;;
35048;SDS011;21236;48.740;-3.446;2022-10-15T08:34:37;2.00;;;1.00;;
35048;SDS011;21236;48.740;-3.446;2022-10-15T08:37:04;7.78;;;1.58;;
35048;SDS011;21236;48.740;-3.446;2022-10-15T08:39:30;4.60;;;0.88;;
35048;SDS011;21236;48.740;-3.446;2022-10-15T08:41:57;4.55;;;1.10;;
35048;SDS011;21236;48.740;-3.446;2022-10-15T08:47:03;7.22;;;1.70;;
35048;SDS011;21236;48.740;-3.446;2022-10-15T08:49:44;5.03;;;1.20;;
35048;SDS011;21236;48.740;-3.446;2022-10-15T08:52:25;3.10;;;1.08;;
35048;SDS011;21236;48.740;-3.446;2022-10-15T08:54:54;12.98;;;1.40;;
35048;SDS011;21236;48.740;-3.446;2022-10-15T08:57:35;7.13;;;1.17;;
35048;SDS011;21236;48.740;-3.446;2022-10-15T09:00:07;8.63;;;1.90;;
35048;SDS011;21236;48.740;-3.446;2022-10-15T09:05:23;6.85;;;1.60;;
35048;SDS011;21236;48.740;-3.446;2022-10-15T09:08:01;7.05;;;1.50;;
35048;SDS011;21236;48.740;-3.446;2022-10-15T09:13:33;10.20;;;1.38;;
35048;SDS011;21236;48.740;-3.446;2022-10-15T09:16:01;7.50;;;1.77;;
35048;SDS011;21236;48.740;-3.446;2022-10-15T09:18:29;4.75;;;1.38;;
35048;SDS011;21236;48.740;-3.446;2022-10-15T09:20:56;5.07;;;1.58;;
35048;SDS011;21236;48.740;-3.446;2022-10-15T09:23:24;7.25;;;1.80;;
35048;SDS011;21236;48.740;-3.446;2022-10-15T09:25:53;9.50;;;1.67;;
35048;SDS011;21236;48.740;-3.446;2022-10-15T09:28:22;7.93;;;1.27;;
35048;SDS011;21236;48.740;-3.446;2022-10-15T09:30:56;8.10;;;1.45;;
35048;SDS011;21236;48.740;-3.446;2022-10-15T09:33:31;2.60;;;1.20;;
35048;SDS011;21236;48.740;-3.446;2022-10-15T09:36:00;6.35;;;1.73;;
35048;SDS011;21236;48.740;-3.446;2022-10-15T09:38:44;7.43;;;1.33;;
35048;SDS011;21236;48.740;-3.446;2022-10-15T09:43:57;7.90;;;1.55;;
35048;SDS011;21236;48.740;-3.446;2022-10-15T09:46:29;2.85;;;1.10;;
35048;SDS011;21236;48.740;-3.446;2022-10-15T09:49:02;6.88;;;1.23;;
35048;SDS011;21236;48.740;-3.446;2022-10-15T09:51:34;5.82;;;1.20;;
35048;SDS011;21236;48.740;-3.446;2022-10-15T09:56:35;7.13;;;1.33;;
35048;SDS011;21236;48.740;-3.446;2022-10-15T09:59:02;9.90;;;1.38;;
35048;SDS011;21236;48.740;-3.446;2022-10-15T10:01:29;5.93;;;1.15;;
35048;SDS011;21236;48.740;-3.446;2022-10-15T10:06:41;6.13;;;1.63;;
35048;SDS011;21236;48.740;-3.446;2022-10-15T10:09:11;3.45;;;1.08;;
35048;SDS011;21236;48.740;-3.446;2022-10-15T10:11:48;13.82;;;1.33;;
35048;SDS011;21236;48.740;-3.446;2022-10-15T10:14:31;13.90;;;2.30;;
35048;SDS011;21236;48.740;-3.446;2022-10-15T10:19:35;9.32;;;1.58;;
35048;SDS011;21236;48.740;-3.446;2022-10-15T10:22:13;7.88;;;1.45;;
35048;SDS011;21236;48.740;-3.446;2022-10-15T10:24:40;9.13;;;1.83;;
35048;SDS011;21236;48.740;-3.446;2022-10-15T10:27:41;4.85;;;1.50;;
35048;SDS011;21236;48.740;-3.446;2022-10-15T10:29:59;10.70;;;1.67;;
35048;SDS011;21236;48.740;-3.446;2022-10-15T10:32:29;10.00;;;1.65;;
35048;SDS011;21236;48.740;-3.446;2022-10-15T10:34:56;8.70;;;1.77;;
35048;SDS011;21236;48.740;-3.446;2022-10-15T10:37:23;9.50;;;1.65;;
35048;SDS011;21236;48.740;-3.446;2022-10-15T10:39:53;10.05;;;2.25;;
35048;SDS011;21236;48.740;-3.446;2022-10-15T10:42:25;12.00;;;1.55;;
35048;SDS011;21236;48.740;-3.446;2022-10-15T10:44:51;12.43;;;1.77;;
35048;SDS011;21236;48.740;-3.446;2022-10-15T10:47:21;11.65;;;1.80;;
35048;SDS011;21236;48.740;-3.446;2022-10-15T10:54:44;6.50;;;1.67;;
35048;SDS011;21236;48.740;-3.446;2022-10-15T10:57:10;7.35;;;1.67;;
35048;SDS011;21236;48.740;-3.446;2022-10-15T10:59:43;11.85;;;1.55;;
35048;SDS011;21236;48.740;-3.446;2022-10-15T11:02:12;13.82;;;1.85;;
35048;SDS011;21236;48.740;-3.446;2022-10-15T11:04:38;12.52;;;1.48;;
35048;SDS011;21236;48.740;-3.446;2022-10-15T11:07:17;7.88;;;2.03;;
35048;SDS011;21236;48.740;-3.446;2022-10-15T11:09:51;7.97;;;2.00;;
35048;SDS011;21236;48.740;-3.446;2022-10-15T11:20:38;15.00;;;2.03;;
35048;SDS011;21236;48.740;-3.446;2022-10-15T11:30:53;4.50;;;1.63;;
35048;SDS011;21236;48.740;-3.446;2022-10-15T11:33:35;9.00;;;1.65;;
35048;SDS011;21236;48.740;-3.446;2022-10-15T11:41:47;9.90;;;1.58;;
35048;SDS011;21236;48.740;-3.446;2022-10-15T11:46:58;13.88;;;1.60;;
35048;SDS011;21236;48.740;-3.446;2022-10-15T11:49:40;13.48;;;1.63;;
35048;SDS011;21236;48.740;-3.446;2022-10-15T11:57:19;9.80;;;1.73;;
35048;SDS011;21236;48.740;-3.446;2022-10-15T11:59:54;11.93;;;1.63;;
35048;SDS011;21236;48.740;-3.446;2022-10-15T12:02:25;17.27;;;1.98;;
35048;SDS011;21236;48.740;-3.446;2022-10-15T12:04:55;7.07;;;1.45;;
35048;SDS011;21236;48.740;-3.446;2022-10-15T12:07:34;8.88;;;1.92;;
35048;SDS011;21236;48.740;-3.446;2022-10-15T12:10:16;12.75;;;1.88;;
35048;SDS011;21236;48.740;-3.446;2022-10-15T12:12:48;16.52;;;2.28;;
35048;SDS011;21236;48.740;-3.446;2022-10-15T12:18:09;9.10;;;2.00;;
35048;SDS011;21236;48.740;-3.446;2022-10-15T12:20:40;13.70;;;1.80;;
35048;SDS011;21236;48.740;-3.446;2022-10-15T12:23:20;12.02;;;1.88;;
35048;SDS011;21236;48.740;-3.446;2022-10-15T12:25:46;10.40;;;2.75;;
35048;SDS011;21236;48.740;-3.446;2022-10-15T12:28:14;14.57;;;2.65;;
35048;SDS011;21236;48.740;-3.446;2022-10-15T12:30:41;10.93;;;1.85;;
35048;SDS011;21236;48.740;-3.446;2022-10-15T12:35:53;15.25;;;1.67;;
35048;SDS011;21236;48.740;-3.446;2022-10-15T12:38:27;15.02;;;1.88;;
35048;SDS011;21236;48.740;-3.446;2022-10-15T12:41:15;13.48;;;1.75;;
35048;SDS011;21236;48.740;-3.446;2022-10-15T12:43:42;11.77;;;2.72;;
35048;SDS011;21236;48.740;-3.446;2022-10-15T12:46:09;11.48;;;2.08;;
35048;SDS011;21236;48.740;-3.446;2022-10-15T12:48:40;9.50;;;1.20;;
35048;SDS011;21236;48.740;-3.446;2022-10-15T12:53:42;6.28;;;1.70;;
35048;SDS011;21236;48.740;-3.446;2022-10-15T12:58:45;6.10;;;1.95;;
35048;SDS011;21236;48.740;-3.446;2022-10-15T13:08:46;10.90;;;1.88;;
35048;SDS011;21236;48.740;-3.446;2022-10-15T13:11:18;15.88;;;2.78;;
35048;SDS011;21236;48.740;-3.446;2022-10-15T13:13:45;9.70;;;1.98;;
35048;SDS011;21236;48.740;-3.446;2022-10-15T13:16:11;12.73;;;2.30;;
35048;SDS011;21236;48.740;-3.446;2022-10-15T13:18:38;12.82;;;1.70;;
35048;SDS011;21236;48.740;-3.446;2022-10-15T13:21:06;10.40;;;2.35;;
35048;SDS011;21236;48.740;-3.446;2022-10-15T13:23:32;10.23;;;1.77;;
35048;SDS011;21236;48.740;-3.446;2022-10-15T13:28:38;7.47;;;1.70;;
35048;SDS011;21236;48.740;-3.446;2022-10-15T13:31:06;14.65;;;2.17;;
35048;SDS011;21236;48.740;-3.446;2022-10-15T13:33:38;12.32;;;1.90;;
35048;SDS011;21236;48.740;-3.446;2022-10-15T13:36:05;15.30;;;2.83;;
35048;SDS011;21236;48.740;-3.446;2022-10-15T13:38:37;17.25;;;1.88;;
35048;SDS011;21236;48.740;-3.446;2022-10-15T13:41:04;14.77;;;2.08;;
35048;SDS011;21236;48.740;-3.446;2022-10-15T13:43:30;9.57;;;2.10;;
35048;SDS011;21236;48.740;-3.446;2022-10-15T13:45:57;13.48;;;1.95;;
35048;SDS011;21236;48.740;-3.446;2022-10-15T13:48:25;13.88;;;2.05;;
35048;SDS011;21236;48.740;-3.446;2022-10-15T13:50:58;9.23;;;2.58;;
35048;SDS011;21236;48.740;-3.446;2022-10-15T13:53:35;14.60;;;2.10;;
35048;SDS011;21236;48.740;-3.446;2022-10-15T13:56:03;16.45;;;2.75;;
35048;SDS011;21236;48.740;-3.446;2022-10-15T13:58:30;14.73;;;2.33;;
35048;SDS011;21236;48.740;-3.446;2022-10-15T14:01:17;12.88;;;2.00;;
35048;SDS011;21236;48.740;-3.446;2022-10-15T14:03:45;20.83;;;3.60;;
35048;SDS011;21236;48.740;-3.446;2022-10-15T14:08:40;14.32;;;2.22;;
35048;SDS011;21236;48.740;-3.446;2022-10-15T14:11:06;10.73;;;1.98;;
35048;SDS011;21236;48.740;-3.446;2022-10-15T14:13:32;11.50;;;1.58;;
35048;SDS011;21236;48.740;-3.446;2022-10-15T14:16:17;16.80;;;2.40;;
35048;SDS011;21236;48.740;-3.446;2022-10-15T14:18:44;11.90;;;1.83;;
35048;SDS011;21236;48.740;-3.446;2022-10-15T14:21:12;6.18;;;1.33;;
35048;SDS011;21236;48.740;-3.446;2022-10-15T14:23:38;7.55;;;1.45;;
35048;SDS011;21236;48.740;-3.446;2022-10-15T14:26:05;9.57;;;1.75;;
35048;SDS011;21236;48.740;-3.446;2022-10-15T14:28:32;9.02;;;1.50;;
35048;SDS011;21236;48.740;-3.446;2022-10-15T14:30:59;9.07;;;2.25;;
35048;SDS011;21236;48.740;-3.446;2022-10-15T14:36:24;5.30;;;0.90;;
35048;SDS011;21236;48.740;-3.446;2022-10-15T14:38:49;8.23;;;1.50;;
35048;SDS011;21236;48.740;-3.446;2022-10-15T14:41:26;5.45;;;1.35;;
35048;SDS011;21236;48.740;-3.446;2022-10-15T14:46:35;8.25;;;1.33;;
35048;SDS011;21236;48.740;-3.446;2022-10-15T14:49:01;7.10;;;1.90;;
35048;SDS011;21236;48.740;-3.446;2022-10-15T14:51:27;9.77;;;2.38;;
35048;SDS011;21236;48.740;-3.446;2022-10-15T14:53:54;10.23;;;2.83;;
35048;SDS011;21236;48.740;-3.446;2022-10-15T14:56:22;10.18;;;2.92;;
35048;SDS011;21236;48.740;-3.446;2022-10-15T14:58:50;8.10;;;2.15;;
35048;SDS011;21236;48.740;-3.446;2022-10-15T15:01:17;13.10;;;1.88;;
35048;SDS011;21236;48.740;-3.446;2022-10-15T15:03:46;8.20;;;2.00;;
35048;SDS011;21236;48.740;-3.446;2022-10-15T15:06:13;11.45;;;2.03;;
35048;SDS011;21236;48.740;-3.446;2022-10-15T15:08:39;8.98;;;1.98;;
35048;SDS011;21236;48.740;-3.446;2022-10-15T15:11:05;11.25;;;1.50;;
35048;SDS011;21236;48.740;-3.446;2022-10-15T15:13:36;11.55;;;1.73;;
35048;SDS011;21236;48.740;-3.446;2022-10-15T15:16:03;8.98;;;2.13;;
35048;SDS011;21236;48.740;-3.446;2022-10-15T15:18:29;7.78;;;1.40;;
35048;SDS011;21236;48.740;-3.446;2022-10-15T15:20:57;9.05;;;1.40;;
35048;SDS011;21236;48.740;-3.446;2022-10-15T15:23:25;8.80;;;1.75;;
35048;SDS011;21236;48.740;-3.446;2022-10-15T15:25:52;9.65;;;1.38;;
35048;SDS011;21236;48.740;-3.446;2022-10-15T15:28:19;6.70;;;1.98;;
35048;SDS011;21236;48.740;-3.446;2022-10-15T15:30:46;5.72;;;1.73;;
35048;SDS011;21236;48.740;-3.446;2022-10-15T15:33:15;8.48;;;2.95;;
35048;SDS011;21236;48.740;-3.446;2022-10-15T15:38:17;4.63;;;1.30;;
35048;SDS011;21236;48.740;-3.446;2022-10-15T15:40:43;7.07;;;2.50;;
35048;SDS011;21236;48.740;-3.446;2022-10-15T15:43:13;16.08;;;3.10;;
35048;SDS011;21236;48.740;-3.446;2022-10-15T15:45:40;11.75;;;2.42;;
35048;SDS011;21236;48.740;-3.446;2022-10-15T15:48:06;12.30;;;2.38;;
35048;SDS011;21236;48.740;-3.446;2022-10-15T15:50:32;11.10;;;1.70;;
35048;SDS011;21236;48.740;-3.446;2022-10-15T15:52:59;7.53;;;2.45;;
35048;SDS011;21236;48.740;-3.446;2022-10-15T15:55:25;12.25;;;2.15;;
35048;SDS011;21236;48.740;-3.446;2022-10-15T15:57:52;8.52;;;2.33;;
35048;SDS011;21236;48.740;-3.446;2022-10-15T16:00:18;8.65;;;2.38;;
35048;SDS011;21236;48.740;-3.446;2022-10-15T16:02:44;12.02;;;2.40;;
35048;SDS011;21236;48.740;-3.446;2022-10-15T16:05:11;12.38;;;3.15;;
35048;SDS011;21236;48.740;-3.446;2022-10-15T16:07:38;12.18;;;2.85;;
35048;SDS011;21236;48.740;-3.446;2022-10-15T16:10:04;8.02;;;1.58;;
35048;SDS011;21236;48.740;-3.446;2022-10-15T16:12:33;6.70;;;1.80;;
35048;SDS011;21236;48.740;-3.446;2022-10-15T16:14:59;5.63;;;1.95;;
35048;SDS011;21236;48.740;-3.446;2022-10-15T16:17:26;7.80;;;2.25;;
35048;SDS011;21236;48.740;-3.446;2022-10-15T16:19:52;11.32;;;2.30;;
35048;SDS011;21236;48.740;-3.446;2022-10-15T16:22:18;13.85;;;2.35;;
35048;SDS011;21236;48.740;-3.446;2022-10-15T16:24:44;13.98;;;2.40;;
35048;SDS011;21236;48.740;-3.446;2022-10-15T16:27:10;10.93;;;2.67;;
35048;SDS011;21236;48.740;-3.446;2022-10-15T16:29:36;16.92;;;2.40;;
35048;SDS011;21236;48.740;-3.446;2022-10-15T16:32:02;11.70;;;2.55;;
35048;SDS011;21236;48.740;-3.446;2022-10-15T16:34:28;10.57;;;2.10;;
35048;SDS011;21236;48.740;-3.446;2022-10-15T16:36:55;8.40;;;1.80;;
35048;SDS011;21236;48.740;-3.446;2022-10-15T16:39:21;9.32;;;2.05;;